createdAt,value
2018-03-26T00:01:45.941Z,9.80
2018-03-26T00:04:12.201Z,9.90
2018-03-26T00:06:38.481Z,9.80
2018-03-26T00:09:04.805Z,9.80
2018-03-26T00:11:31.089Z,9.80
2018-03-26T00:13:57.362Z,9.80
2018-03-26T00:16:23.678Z,9.70
2018-03-26T00:18:50.690Z,9.60
2018-03-26T00:21:16.966Z,9.60
2018-03-26T00:23:43.224Z,9.60
2018-03-26T00:26:10.225Z,9.60
2018-03-26T00:28:36.442Z,9.60
2018-03-26T00:31:02.676Z,9.60
2018-03-26T00:33:29.368Z,9.60
2018-03-26T00:35:55.694Z,9.60
2018-03-26T00:38:21.938Z,9.60
2018-03-26T00:40:48.164Z,9.60
2018-03-26T00:43:14.805Z,9.60
2018-03-26T00:45:41.030Z,9.60
2018-03-26T00:48:07.269Z,9.50
2018-03-26T00:50:34.225Z,9.50
2018-03-26T00:53:00.554Z,9.40
2018-03-26T00:55:26.764Z,9.40
2018-03-26T00:57:54.574Z,9.40
2018-03-26T01:00:20.864Z,9.40
2018-03-26T01:02:47.082Z,9.40
2018-03-26T01:05:13.586Z,9.30
2018-03-26T01:07:39.817Z,9.30
2018-03-26T01:10:06.071Z,9.30
2018-03-26T01:12:32.309Z,9.20
2018-03-26T01:14:58.536Z,9.10
2018-03-26T01:17:24.767Z,9.00
2018-03-26T01:19:50.977Z,9.10
2018-03-26T01:22:18.194Z,9.00
2018-03-26T01:24:44.413Z,9.00
2018-03-26T01:27:10.633Z,9.10
2018-03-26T01:29:36.891Z,9.10
2018-03-26T01:32:03.124Z,9.00
2018-03-26T01:34:29.365Z,9.00
2018-03-26T01:36:55.633Z,9.00
2018-03-26T01:39:21.948Z,8.90
2018-03-26T01:41:48.169Z,8.80
2018-03-26T01:44:15.156Z,8.70
2018-03-26T01:46:41.413Z,8.70
2018-03-26T01:49:07.650Z,8.70
2018-03-26T01:51:33.939Z,8.70
2018-03-26T01:54:02.666Z,8.60
2018-03-26T01:56:28.880Z,8.60
2018-03-26T01:58:55.954Z,8.60
2018-03-26T02:01:22.190Z,8.60
2018-03-26T02:03:49.175Z,8.70
2018-03-26T02:06:15.413Z,8.70
2018-03-26T02:08:41.658Z,8.70
2018-03-26T02:11:09.122Z,8.60
2018-03-26T02:13:35.361Z,8.60
2018-03-26T02:16:02.311Z,8.50
2018-03-26T02:18:29.292Z,8.50
2018-03-26T02:20:55.659Z,8.50
2018-03-26T02:23:22.646Z,8.40
2018-03-26T02:25:49.644Z,8.40
2018-03-26T02:28:15.916Z,8.40
2018-03-26T02:30:42.162Z,8.30
2018-03-26T02:33:08.527Z,8.30
2018-03-26T02:35:34.820Z,8.30
2018-03-26T02:38:01.055Z,8.30
2018-03-26T02:40:27.310Z,8.30
2018-03-26T02:42:53.565Z,8.30
2018-03-26T02:45:19.802Z,8.30
2018-03-26T02:47:46.062Z,8.30
2018-03-26T02:50:12.280Z,8.20
2018-03-26T02:52:38.543Z,8.20
2018-03-26T02:55:05.845Z,8.10
2018-03-26T02:57:32.089Z,8.10
2018-03-26T02:59:58.301Z,8.10
2018-03-26T03:02:25.301Z,8.10
2018-03-26T03:04:51.587Z,8.10
2018-03-26T03:07:17.874Z,8.10
2018-03-26T03:09:44.153Z,8.10
2018-03-26T03:12:10.416Z,8.10
2018-03-26T03:14:36.681Z,8.00
2018-03-26T03:17:03.701Z,7.90
2018-03-26T03:19:29.952Z,7.90
2018-03-26T03:21:56.268Z,7.90
2018-03-26T03:24:22.604Z,7.90
2018-03-26T03:26:48.888Z,7.90
2018-03-26T03:29:15.105Z,7.90
2018-03-26T03:31:41.350Z,7.90
2018-03-26T03:34:07.570Z,7.90
2018-03-26T03:36:33.804Z,7.90
2018-03-26T03:39:00.057Z,8.00
2018-03-26T03:41:26.293Z,7.90
2018-03-26T03:43:52.775Z,7.90
2018-03-26T03:46:19.057Z,7.90
2018-03-26T03:48:46.045Z,7.90
2018-03-26T03:51:12.261Z,7.90
2018-03-26T03:53:38.510Z,7.90
2018-03-26T03:56:04.756Z,7.90
2018-03-26T03:58:30.972Z,8.00
2018-03-26T04:00:58.714Z,8.00
2018-03-26T04:03:25.745Z,8.00
2018-03-26T04:05:51.974Z,8.00
2018-03-26T04:08:18.211Z,8.00
2018-03-26T04:10:44.431Z,7.90
2018-03-26T04:13:10.669Z,7.90
2018-03-26T04:15:36.927Z,7.90
2018-03-26T04:18:03.178Z,7.90
2018-03-26T04:20:29.513Z,7.90
2018-03-26T04:22:57.781Z,7.90
2018-03-26T04:25:24.757Z,8.00
2018-03-26T04:27:51.094Z,7.90
2018-03-26T04:30:17.313Z,7.90
2018-03-26T04:32:44.317Z,8.00
2018-03-26T04:35:10.577Z,8.00
2018-03-26T04:37:36.825Z,8.10
2018-03-26T04:40:03.090Z,8.10
2018-03-26T04:42:30.073Z,8.10
2018-03-26T04:44:56.310Z,8.10
2018-03-26T04:47:22.534Z,8.10
2018-03-26T04:49:49.522Z,8.10
2018-03-26T04:52:16.488Z,8.10
2018-03-26T04:54:43.850Z,8.10
2018-03-26T04:57:10.092Z,8.10
2018-03-26T04:59:36.373Z,8.10
2018-03-26T05:02:03.372Z,8.10
2018-03-26T05:04:30.333Z,8.00
2018-03-26T05:06:56.560Z,8.00
2018-03-26T05:09:22.797Z,8.10
2018-03-26T05:11:49.766Z,8.10
2018-03-26T05:14:16.045Z,8.10
2018-03-26T05:16:43.374Z,8.00
2018-03-26T05:19:10.373Z,8.00
2018-03-26T05:21:36.633Z,8.00
2018-03-26T05:24:03.634Z,8.00
2018-03-26T05:26:29.872Z,7.90
2018-03-26T05:28:56.857Z,8.00
2018-03-26T05:31:23.108Z,7.90
2018-03-26T05:33:49.387Z,8.00
2018-03-26T05:36:15.666Z,8.00
2018-03-26T05:38:41.945Z,8.00
2018-03-26T05:41:08.235Z,8.10
2018-03-26T05:43:34.531Z,8.10
2018-03-26T05:46:00.802Z,8.10
2018-03-26T05:48:27.816Z,8.10
2018-03-26T05:50:54.104Z,8.10
2018-03-26T05:53:21.121Z,8.10
2018-03-26T05:55:47.410Z,8.10
2018-03-26T05:58:13.683Z,8.10
2018-03-26T06:00:41.330Z,8.20
2018-03-26T06:03:09.699Z,8.20
2018-03-26T06:05:35.985Z,8.20
2018-03-26T06:08:02.253Z,8.20
2018-03-26T06:10:30.765Z,8.20
2018-03-26T06:12:57.029Z,8.20
2018-03-26T06:15:23.326Z,8.10
2018-03-26T06:17:49.667Z,8.20
2018-03-26T06:20:15.965Z,8.20
2018-03-26T06:22:42.265Z,8.20
2018-03-26T06:25:08.572Z,8.10
2018-03-26T06:27:34.833Z,8.00
2018-03-26T06:30:01.079Z,8.00
2018-03-26T06:32:27.359Z,8.00
2018-03-26T06:34:54.472Z,8.10
2018-03-26T06:40:31.339Z,8.30
2018-03-26T06:42:57.385Z,8.40
2018-03-26T06:45:24.165Z,8.70
2018-03-26T06:47:50.201Z,8.70
2018-03-26T06:50:19.401Z,8.80
2018-03-26T06:52:46.282Z,9.00
2018-03-26T06:55:12.333Z,8.90
2018-03-26T06:57:38.370Z,9.00
2018-03-26T07:00:04.425Z,9.00
2018-03-26T07:02:30.553Z,8.90
2018-03-26T07:04:56.633Z,8.80
2018-03-26T07:07:23.446Z,8.50
2018-03-26T07:09:49.522Z,8.50
2018-03-26T07:12:16.329Z,8.50
2018-03-26T07:14:43.123Z,8.50
2018-03-26T07:17:09.922Z,8.50
2018-03-26T07:19:35.977Z,8.50
2018-03-26T07:22:02.005Z,8.50
2018-03-26T07:24:28.509Z,8.50
2018-03-26T07:26:55.297Z,8.50
2018-03-26T07:29:21.370Z,8.50
2018-03-26T07:31:47.455Z,8.50
2018-03-26T07:34:13.513Z,8.60
2018-03-26T07:36:39.572Z,8.70
2018-03-26T07:39:05.713Z,8.80
2018-03-26T07:41:33.218Z,9.00
2018-03-26T07:44:00.034Z,9.60
2018-03-26T07:46:26.183Z,9.60
2018-03-26T07:48:52.665Z,10.00
2018-03-26T07:51:19.651Z,10.30
2018-03-26T07:53:45.745Z,10.20
2018-03-26T07:56:12.736Z,10.00
2018-03-26T07:58:38.793Z,9.90
2018-03-26T08:01:05.447Z,9.80
2018-03-26T08:03:31.712Z,9.70
2018-03-26T08:05:57.968Z,9.80
2018-03-26T08:08:24.235Z,10.00
2018-03-26T08:10:50.466Z,10.60
2018-03-26T08:13:18.177Z,11.00
2018-03-26T08:15:44.481Z,11.30
2018-03-26T08:18:10.725Z,11.50
2018-03-26T08:20:36.958Z,11.30
2018-03-26T08:23:03.227Z,11.00
2018-03-26T08:25:30.213Z,11.40
2018-03-26T08:27:57.217Z,11.80
2018-03-26T08:30:23.480Z,11.80
2018-03-26T08:32:49.766Z,12.20
2018-03-26T08:35:16.128Z,12.60
2018-03-26T08:37:42.389Z,12.90
2018-03-26T08:40:09.561Z,13.20
2018-03-26T08:42:35.807Z,12.80
2018-03-26T08:45:02.090Z,12.50
2018-03-26T08:47:28.344Z,12.60
2018-03-26T08:49:54.707Z,12.80
2018-03-26T08:52:20.864Z,13.00
2018-03-26T08:54:47.175Z,13.10
2018-03-26T08:57:13.588Z,13.30
2018-03-26T08:59:39.854Z,13.50
2018-03-26T09:02:06.162Z,13.40
2018-03-26T09:04:32.439Z,13.20
2018-03-26T09:06:58.715Z,13.50
2018-03-26T09:09:24.985Z,13.50
2018-03-26T09:11:51.280Z,13.60
2018-03-26T09:14:17.581Z,13.50
2018-03-26T09:16:43.861Z,13.30
2018-03-26T09:19:10.127Z,13.50
2018-03-26T09:21:36.417Z,13.80
2018-03-26T09:24:02.709Z,14.30
2018-03-26T09:26:28.981Z,14.40
2018-03-26T09:28:56.021Z,14.70
2018-03-26T09:31:23.007Z,14.30
2018-03-26T09:33:49.962Z,13.80
2018-03-26T09:36:16.952Z,13.50
2018-03-26T09:38:43.191Z,13.40
2018-03-26T09:41:09.492Z,13.10
2018-03-26T09:43:36.450Z,13.50
2018-03-26T09:46:02.708Z,13.50
2018-03-26T09:48:29.649Z,12.80
2018-03-26T09:50:55.907Z,12.80
2018-03-26T09:53:22.154Z,13.20
2018-03-26T09:55:49.113Z,14.30
2018-03-26T09:58:15.378Z,14.30
2018-03-26T10:00:47.457Z,14.80
2018-03-26T10:03:13.701Z,15.50
2018-03-26T10:05:39.926Z,15.60
2018-03-26T10:08:06.150Z,14.80
2018-03-26T10:10:32.357Z,14.00
2018-03-26T10:12:58.581Z,13.90
2018-03-26T10:15:25.599Z,13.40
2018-03-26T10:17:52.596Z,13.30
2018-03-26T10:20:18.932Z,13.40
2018-03-26T10:22:45.174Z,13.30
2018-03-26T10:25:12.231Z,13.40
2018-03-26T10:27:38.480Z,13.40
2018-03-26T10:30:04.717Z,13.00
2018-03-26T10:32:30.945Z,12.60
2018-03-26T10:34:57.190Z,12.50
2018-03-26T10:37:24.142Z,12.70
2018-03-26T10:39:50.399Z,12.70
2018-03-26T10:42:19.868Z,13.10
2018-03-26T10:44:46.148Z,13.50
2018-03-26T10:47:12.392Z,13.80
2018-03-26T10:49:38.650Z,14.30
2018-03-26T10:52:04.868Z,14.70
2018-03-26T10:54:31.143Z,14.50
2018-03-26T10:56:57.509Z,14.20
2018-03-26T10:59:23.790Z,14.10
2018-03-26T11:01:50.031Z,14.30
2018-03-26T11:04:16.321Z,14.70
2018-03-26T11:06:43.861Z,15.10
2018-03-26T11:09:10.117Z,15.50
2018-03-26T11:11:36.330Z,16.00
2018-03-26T11:14:02.567Z,16.40
2018-03-26T11:16:28.801Z,15.90
2018-03-26T11:18:55.036Z,15.20
2018-03-26T11:21:21.281Z,15.10
2018-03-26T11:23:50.356Z,14.90
2018-03-26T11:26:16.613Z,14.80
2018-03-26T11:28:42.985Z,14.70
2018-03-26T11:31:10.009Z,14.30
2018-03-26T11:33:36.465Z,14.20
2018-03-26T11:36:02.762Z,14.50
2018-03-26T11:38:29.781Z,14.80
2018-03-26T11:40:56.172Z,14.80
2018-03-26T11:43:27.385Z,14.90
2018-03-26T11:45:53.699Z,14.90
2018-03-26T11:48:19.938Z,14.90
2018-03-26T11:50:46.226Z,14.90
2018-03-26T11:53:12.485Z,15.00
2018-03-26T11:55:38.785Z,15.20
2018-03-26T11:58:05.589Z,15.40
2018-03-26T12:00:36.958Z,15.40
2018-03-26T12:03:03.977Z,15.60
2018-03-26T12:05:30.269Z,15.60
2018-03-26T12:07:56.580Z,15.70
2018-03-26T12:10:22.821Z,15.60
2018-03-26T12:12:49.085Z,15.70
2018-03-26T12:15:15.423Z,15.70
2018-03-26T12:17:41.721Z,15.60
2018-03-26T12:20:20.498Z,15.50
2018-03-26T12:22:47.568Z,15.00
2018-03-26T12:25:15.708Z,15.00
2018-03-26T12:27:55.092Z,14.80
2018-03-26T12:30:23.085Z,14.80
2018-03-26T12:32:49.341Z,15.20
2018-03-26T12:35:32.568Z,15.40
2018-03-26T12:37:59.398Z,15.30
2018-03-26T12:40:38.025Z,15.30
2018-03-26T12:43:04.258Z,15.20
2018-03-26T12:45:43.162Z,15.50
2018-03-26T12:48:10.133Z,15.70
2018-03-26T12:50:53.073Z,15.70
2018-03-26T12:53:19.349Z,15.70
2018-03-26T12:55:45.598Z,15.70
2018-03-26T12:58:24.382Z,15.40
2018-03-26T13:01:04.812Z,14.90
2018-03-26T13:03:31.029Z,14.70
2018-03-26T13:05:58.016Z,14.90
2018-03-26T13:08:24.049Z,14.80
2018-03-26T13:10:51.130Z,15.40
2018-03-26T13:13:19.517Z,15.40
2018-03-26T13:15:45.726Z,15.60
2018-03-26T13:18:12.699Z,14.90
2018-03-26T13:20:39.018Z,14.90
2018-03-26T13:23:05.323Z,14.60
2018-03-26T13:25:31.542Z,14.40
2018-03-26T13:27:57.785Z,14.30
2018-03-26T13:30:24.022Z,14.30
2018-03-26T13:32:50.415Z,14.40
2018-03-26T13:35:16.682Z,14.40
2018-03-26T13:37:42.925Z,14.20
2018-03-26T13:40:09.165Z,13.60
2018-03-26T13:42:35.421Z,13.40
2018-03-26T13:45:02.374Z,13.10
2018-03-26T13:47:28.653Z,13.10
2018-03-26T13:49:54.965Z,12.90
2018-03-26T13:52:22.042Z,12.90
2018-03-26T13:54:48.483Z,12.90
2018-03-26T13:57:14.714Z,13.00
2018-03-26T13:59:40.962Z,13.00
2018-03-26T14:02:07.205Z,13.30
2018-03-26T14:04:33.473Z,13.50
2018-03-26T14:06:59.745Z,13.80
2018-03-26T14:09:39.235Z,14.10
2018-03-26T14:12:17.926Z,14.10
2018-03-26T14:14:56.533Z,13.90
2018-03-26T14:17:35.300Z,13.50
2018-03-26T14:20:02.289Z,13.50
2018-03-26T14:22:28.577Z,13.50
2018-03-26T14:24:54.913Z,13.60
2018-03-26T14:27:21.166Z,13.60
2018-03-26T14:29:48.169Z,13.70
2018-03-26T14:32:15.136Z,13.80
2018-03-26T14:34:49.283Z,13.70
2018-03-26T14:37:15.524Z,13.70
2018-03-26T14:39:41.753Z,13.60
2018-03-26T14:42:07.993Z,13.60
2018-03-26T14:44:34.205Z,13.80
2018-03-26T14:47:00.426Z,14.30
2018-03-26T14:49:26.653Z,14.60
2018-03-26T14:51:53.032Z,14.70
2018-03-26T14:54:19.238Z,14.80
2018-03-26T14:56:46.233Z,15.50
2018-03-26T14:59:12.473Z,15.50
2018-03-26T15:01:38.777Z,15.50
2018-03-26T15:04:04.975Z,15.20
2018-03-26T15:06:31.194Z,14.80
2018-03-26T15:08:57.436Z,14.60
2018-03-26T15:11:24.381Z,14.30
2018-03-26T15:13:50.665Z,14.30
2018-03-26T15:16:16.927Z,14.30
2018-03-26T15:18:43.973Z,14.00
2018-03-26T15:21:10.188Z,14.00
2018-03-26T15:23:36.441Z,13.70
2018-03-26T15:26:02.746Z,13.60
2018-03-26T15:28:29.798Z,13.30
2018-03-26T15:30:56.973Z,13.00
2018-03-26T15:33:23.382Z,13.00
2018-03-26T15:35:49.714Z,12.80
2018-03-26T15:38:16.867Z,12.60
2018-03-26T15:40:43.191Z,12.60
2018-03-26T15:43:10.277Z,12.30
2018-03-26T15:45:37.389Z,12.20
2018-03-26T15:48:03.660Z,12.20
2018-03-26T15:50:32.424Z,12.20
2018-03-26T15:52:59.417Z,12.00
2018-03-26T15:55:25.786Z,12.00
2018-03-26T15:57:53.113Z,11.80
2018-03-26T16:00:19.449Z,11.70
2018-03-26T16:02:52.477Z,11.40
2018-03-26T16:05:18.777Z,11.40
2018-03-26T16:07:45.791Z,11.30
2018-03-26T16:10:12.081Z,11.40
2018-03-26T16:12:38.375Z,11.30
2018-03-26T16:15:04.650Z,11.30
2018-03-26T16:17:31.704Z,11.30
2018-03-26T16:20:00.482Z,11.20
2018-03-26T16:22:26.761Z,11.30
2018-03-26T16:24:53.777Z,11.30
2018-03-26T16:27:20.061Z,11.20
2018-03-26T16:29:47.858Z,11.20
2018-03-26T16:32:14.088Z,11.10
2018-03-26T16:34:40.309Z,11.10
2018-03-26T16:37:06.566Z,11.10
2018-03-26T16:39:32.866Z,11.00
2018-03-26T16:42:11.649Z,10.90
2018-03-26T16:44:37.891Z,10.80
2018-03-26T16:47:04.205Z,10.70
2018-03-26T16:49:30.444Z,10.70
2018-03-26T16:51:56.731Z,10.70
2018-03-26T16:54:23.033Z,10.80
2018-03-26T16:56:50.065Z,10.80
2018-03-26T16:59:16.389Z,10.80
2018-03-26T17:01:42.698Z,10.80
2018-03-26T17:04:08.958Z,10.80
2018-03-26T17:06:35.755Z,10.80
2018-03-26T17:09:02.043Z,10.80
2018-03-26T17:11:28.303Z,10.60
2018-03-26T17:13:54.615Z,10.60
2018-03-26T17:16:21.921Z,10.40
2018-03-26T17:18:49.116Z,10.40
2018-03-26T17:21:16.409Z,10.40
2018-03-26T17:23:43.474Z,10.30
2018-03-26T17:26:10.525Z,10.30
2018-03-26T17:28:36.917Z,10.30
2018-03-26T17:31:03.950Z,10.20
2018-03-26T17:33:30.242Z,10.20
2018-03-26T17:35:56.718Z,10.10
2018-03-26T17:38:23.822Z,10.00
2018-03-26T17:40:50.816Z,10.00
2018-03-26T17:43:17.115Z,10.00
2018-03-26T17:45:43.422Z,10.00
2018-03-26T17:48:09.680Z,10.00
2018-03-26T17:50:36.774Z,10.00
2018-03-26T17:53:03.458Z,10.00
2018-03-26T17:55:29.729Z,10.00
2018-03-26T17:57:56.844Z,10.00
2018-03-26T18:00:23.152Z,10.00
2018-03-26T18:02:49.430Z,10.00
2018-03-26T18:05:15.687Z,9.90
2018-03-26T18:07:41.976Z,10.00
2018-03-26T18:10:09.040Z,9.80
2018-03-26T18:12:35.281Z,9.80
2018-03-26T18:15:01.591Z,9.80
2018-03-26T18:17:28.949Z,9.80
2018-03-26T18:19:55.229Z,9.80
2018-03-26T18:22:21.545Z,9.80
2018-03-26T18:24:48.589Z,9.60
2018-03-26T18:27:14.833Z,9.60
2018-03-26T18:29:41.876Z,9.70
2018-03-26T18:32:08.110Z,9.70
2018-03-26T18:34:34.345Z,9.70
2018-03-26T18:37:01.315Z,9.70
2018-03-26T18:39:27.566Z,9.60
2018-03-26T18:41:53.829Z,9.70
2018-03-26T18:44:20.860Z,9.70
2018-03-26T18:46:47.130Z,9.70
2018-03-26T18:49:14.164Z,9.70
2018-03-26T18:51:40.425Z,9.70
2018-03-26T18:54:06.675Z,9.70
2018-03-26T18:56:32.945Z,9.70
2018-03-26T18:58:59.933Z,9.60
2018-03-26T19:01:26.901Z,9.60
2018-03-26T19:03:53.237Z,9.60
2018-03-26T19:06:19.529Z,9.60
2018-03-26T19:08:46.507Z,9.60
2018-03-26T19:11:12.867Z,9.50
2018-03-26T19:13:39.130Z,9.50
2018-03-26T19:16:06.065Z,9.60
2018-03-26T19:18:32.321Z,9.60
2018-03-26T19:20:58.573Z,9.60
2018-03-26T19:23:24.836Z,9.60
2018-03-26T19:25:51.073Z,9.50
2018-03-26T19:28:17.350Z,9.50
2018-03-26T19:30:44.330Z,9.60
2018-03-26T19:33:10.577Z,9.50
2018-03-26T19:35:36.842Z,9.60
2018-03-26T19:38:03.087Z,9.60
2018-03-26T19:40:29.316Z,9.50
2018-03-26T19:42:55.559Z,9.50
2018-03-26T19:45:21.780Z,9.60
2018-03-26T19:47:48.046Z,9.60
2018-03-26T19:50:14.301Z,9.60
2018-03-26T19:52:40.544Z,9.60
2018-03-26T19:55:07.841Z,9.60
2018-03-26T19:57:34.944Z,9.60
2018-03-26T20:00:01.094Z,9.60
2018-03-26T20:02:27.320Z,9.60
2018-03-26T20:04:54.302Z,9.60
2018-03-26T20:07:20.513Z,9.60
2018-03-26T20:09:46.961Z,9.60
2018-03-26T20:12:13.946Z,9.60
2018-03-26T20:14:40.214Z,9.60
2018-03-26T20:17:07.202Z,9.40
2018-03-26T20:19:34.085Z,9.40
2018-03-26T20:22:00.302Z,9.40
2018-03-26T20:24:26.536Z,9.40
2018-03-26T20:26:52.745Z,9.50
2018-03-26T20:29:19.061Z,9.40
2018-03-26T20:31:46.153Z,9.40
2018-03-26T20:34:12.393Z,9.40
2018-03-26T20:36:38.689Z,9.40
2018-03-26T20:39:04.941Z,9.40
2018-03-26T20:41:31.781Z,9.40
2018-03-26T20:43:58.069Z,9.40
2018-03-26T20:46:26.112Z,9.50
2018-03-26T20:48:52.397Z,9.40
2018-03-26T20:51:20.329Z,9.20
2018-03-26T20:53:46.609Z,8.90
2018-03-26T20:56:12.993Z,8.70
2018-03-26T20:58:39.992Z,8.50
2018-03-26T21:01:06.286Z,8.50
2018-03-26T21:03:32.553Z,8.30
2018-03-26T21:05:58.821Z,8.10
2018-03-26T21:08:25.061Z,7.90
2018-03-26T21:10:51.420Z,7.80
2018-03-26T21:13:17.881Z,7.70
2018-03-26T21:15:44.856Z,7.50
2018-03-26T21:18:11.365Z,7.50
2018-03-26T21:20:37.672Z,7.40
2018-03-26T21:23:04.842Z,7.30
2018-03-26T21:25:31.080Z,7.30
2018-03-26T21:27:57.448Z,7.30
2018-03-26T21:30:23.737Z,7.30
2018-03-26T21:32:50.083Z,7.20
2018-03-26T21:35:17.103Z,7.20
2018-03-26T21:37:44.097Z,7.10
2018-03-26T21:40:10.387Z,7.10
2018-03-26T21:42:36.911Z,7.10
2018-03-26T21:45:03.082Z,6.90
2018-03-26T21:47:29.126Z,6.90
2018-03-26T21:49:55.353Z,6.70
2018-03-26T21:52:21.437Z,6.50
2018-03-26T21:54:47.573Z,6.50
2018-03-26T21:57:13.685Z,6.60
2018-03-26T21:59:39.740Z,6.60
2018-03-26T22:02:06.744Z,6.60
2018-03-26T22:04:33.687Z,6.70
2018-03-26T22:07:00.453Z,6.70
2018-03-26T22:09:26.630Z,6.60
2018-03-26T22:11:53.464Z,6.60
2018-03-26T22:14:19.568Z,6.50
2018-03-26T22:16:45.737Z,6.50
2018-03-26T22:19:11.948Z,6.60
2018-03-26T22:21:38.269Z,6.60
2018-03-26T22:24:04.513Z,6.70
2018-03-26T22:26:30.661Z,6.70
2018-03-26T22:28:56.823Z,6.60
2018-03-26T22:31:23.245Z,6.50
2018-03-26T22:33:49.592Z,6.50
2018-03-26T22:36:15.952Z,6.40
2018-03-26T22:38:42.295Z,6.30
2018-03-26T22:41:08.685Z,6.40
2018-03-26T22:43:35.019Z,6.40
2018-03-26T22:46:02.214Z,6.30
2018-03-26T22:48:29.396Z,6.30
2018-03-26T22:50:55.637Z,6.30
2018-03-26T22:53:21.925Z,6.30
2018-03-26T22:55:49.044Z,6.20
2018-03-26T22:58:15.350Z,6.20
2018-03-26T23:00:41.708Z,6.20
2018-03-26T23:03:08.014Z,5.90
2018-03-26T23:05:35.134Z,5.90
2018-03-26T23:08:01.380Z,6.00
2018-03-26T23:10:27.657Z,6.00
2018-03-26T23:12:53.952Z,6.10
2018-03-26T23:15:20.438Z,6.00
2018-03-26T23:17:46.674Z,5.70
2018-03-26T23:20:12.954Z,5.70
2018-03-26T23:22:45.374Z,5.70
2018-03-26T23:25:11.664Z,5.80
2018-03-26T23:27:38.637Z,5.60
2018-03-26T23:30:04.941Z,5.60
2018-03-26T23:32:31.916Z,5.40
2018-03-26T23:34:58.184Z,5.40
2018-03-26T23:37:24.425Z,5.40
2018-03-26T23:39:50.676Z,5.40
2018-03-26T23:42:16.927Z,5.50
2018-03-26T23:44:43.249Z,5.60
2018-03-26T23:47:09.491Z,5.80
2018-03-26T23:49:35.765Z,5.80
2018-03-26T23:52:02.005Z,5.70
2018-03-26T23:54:28.256Z,5.60
2018-03-26T23:56:54.477Z,5.60
2018-03-26T23:59:20.760Z,5.20
